首页
METAR-TAF:

METAR-TAF

机场 :

Cedar City, 犹他州, 美国

纬度: 37-42-24N, 经度: 113-05-48W, 海拔: 1715米

当前天气观测

该预报发布于16分钟前的04:53 UTC
风速3节,风向西南
温度 0°C
湿度 100%
气压 1018 hPa
能見度: 16.1公里
天空无云

METAR: KCDC 220453Z AUTO 22003KT 10SM CLR 00/00 A3006 RMK AO2 SLP186 T00000000

时间: 22:09 (05:09 UTC)

预报

该预报发布于5小时和31分钟前的23:38 UTC
预报有效从22日的 00点(UTC)到 22日的 24点(UTC)
风速6节,风向
能見度: 10公里
散云层高于3000英尺
多云层高于5000英尺
阴天层高于10000英尺
从 22日的 0100点(UTC)
风速3节,风向多变
能見度: 10公里
散云层高于5000英尺
多云层高于10000英尺

TAF: KCDC 212338Z 2200/2224 19006KT P6SM SCT030 BKN050 OVC100 FM220100 VRB03KT P6SM SCT050 BKN100

超过4000个机场的气象观测和天气预报(METAR&TAF报告)。

可查询的气象台以黄色和红色小点在地图上表示。

将鼠标移到小点上方,可查看气象台名称。

然后点击查看天气观测和预报。

如需切换地图:点击带黑十字的绿色按钮放大地图;点击带横线的绿色按钮缩小地图;或者点击绿色箭头查看邻近地区的地图。


METAR-TAF: